createdAt,value
2023-05-11T00:01:16.167Z,73.13
2023-05-11T00:03:44.104Z,70.28
2023-05-11T00:06:14.983Z,68.40
2023-05-11T00:08:43.271Z,69.00
2023-05-11T00:11:10.026Z,70.82
2023-05-11T00:13:38.083Z,69.04
2023-05-11T00:16:05.429Z,69.07
2023-05-11T00:18:32.853Z,69.18
2023-05-11T00:21:00.888Z,67.96
2023-05-11T00:23:28.054Z,67.17
2023-05-11T00:25:55.451Z,71.62
2023-05-11T00:28:24.913Z,74.67
2023-05-11T00:30:58.424Z,74.73
2023-05-11T00:33:25.537Z,75.68
2023-05-11T00:35:52.613Z,75.10
2023-05-11T00:38:20.422Z,75.96
2023-05-11T00:40:48.553Z,71.93
2023-05-11T00:43:17.358Z,69.61
2023-05-11T00:45:44.432Z,71.96
2023-05-11T00:48:11.170Z,71.69
2023-05-11T00:50:38.250Z,70.28
2023-05-11T00:53:05.389Z,71.22
2023-05-11T00:55:35.097Z,74.62
2023-05-11T00:58:05.104Z,73.48
2023-05-11T01:00:32.164Z,70.65
2023-05-11T01:02:59.494Z,69.49
2023-05-11T01:05:31.701Z,74.18
2023-05-11T01:08:15.627Z,74.14
2023-05-11T01:10:45.008Z,74.68
2023-05-11T01:13:27.650Z,76.76
2023-05-11T01:15:55.836Z,77.22
2023-05-11T01:19:07.545Z,76.46
2023-05-11T01:21:34.849Z,76.08
2023-05-11T01:24:23.863Z,74.40
2023-05-11T01:27:04.059Z,74.08
2023-05-11T01:29:40.587Z,72.14
2023-05-11T01:32:11.116Z,69.56
2023-05-11T01:34:38.718Z,67.59
2023-05-11T01:37:09.717Z,66.43
2023-05-11T01:39:38.572Z,69.71
2023-05-11T01:42:08.731Z,67.43
2023-05-11T01:44:37.269Z,66.00
2023-05-11T01:47:04.754Z,65.40
2023-05-11T01:49:33.842Z,66.20
2023-05-11T01:52:03.985Z,66.24
2023-05-11T01:54:30.714Z,64.95
2023-05-11T01:56:58.158Z,66.32
2023-05-11T01:59:26.116Z,65.09
2023-05-11T02:01:52.960Z,65.54
2023-05-11T02:04:20.472Z,67.56
2023-05-11T02:06:47.183Z,66.68
2023-05-11T02:09:15.460Z,65.73
2023-05-11T02:11:46.069Z,65.97
2023-05-11T02:14:13.158Z,67.11
2023-05-11T02:16:41.096Z,69.42
2023-05-11T02:19:08.156Z,68.74
2023-05-11T02:21:35.395Z,67.36
2023-05-11T02:24:02.463Z,67.07
2023-05-11T02:26:30.461Z,65.84
2023-05-11T02:28:58.448Z,64.93
2023-05-11T02:31:29.038Z,64.47
2023-05-11T02:34:00.113Z,64.64
2023-05-11T02:36:28.510Z,65.05
2023-05-11T02:39:02.587Z,65.72
2023-05-11T02:41:30.727Z,66.77
2023-05-11T02:44:01.662Z,67.38
2023-05-11T02:46:33.701Z,68.74
2023-05-11T02:49:01.032Z,69.58
2023-05-11T02:51:33.175Z,72.06
2023-05-11T02:53:59.960Z,70.77
2023-05-11T02:56:26.690Z,70.63
2023-05-11T02:58:53.829Z,70.44
2023-05-11T03:01:20.679Z,71.10
2023-05-11T03:03:50.226Z,69.86
2023-05-11T03:06:18.341Z,71.93
2023-05-11T03:08:46.015Z,70.97
2023-05-11T03:11:15.692Z,70.18
2023-05-11T03:13:43.417Z,73.12
2023-05-11T03:16:12.015Z,71.40
2023-05-11T03:18:39.228Z,71.13
2023-05-11T03:21:09.145Z,74.93
2023-05-11T03:23:36.369Z,71.91
2023-05-11T03:26:04.181Z,74.40
2023-05-11T03:28:30.915Z,76.43
2023-05-11T03:30:58.117Z,73.13
2023-05-11T03:33:25.106Z,72.56
2023-05-11T03:35:52.265Z,73.78
2023-05-11T03:38:22.486Z,72.51
2023-05-11T03:40:49.202Z,71.22
2023-05-11T03:43:16.730Z,71.37
2023-05-11T03:45:45.304Z,70.30
2023-05-11T03:48:15.289Z,69.45
2023-05-11T03:50:42.657Z,68.31
2023-05-11T03:53:11.003Z,69.81
2023-05-11T03:55:38.122Z,69.31
2023-05-11T03:58:11.290Z,68.04
2023-05-11T04:00:42.071Z,69.30
2023-05-11T04:03:14.852Z,68.68
2023-05-11T04:05:41.659Z,70.55
2023-05-11T04:08:08.892Z,70.67
2023-05-11T04:10:36.016Z,68.48
2023-05-11T04:13:03.165Z,68.23
2023-05-11T04:15:32.818Z,70.46
2023-05-11T04:18:02.508Z,75.76
2023-05-11T04:20:29.644Z,79.00
2023-05-11T04:22:56.812Z,80.76
2023-05-11T04:25:26.382Z,79.50
2023-05-11T04:27:54.157Z,78.24
2023-05-11T04:30:21.068Z,77.70
2023-05-11T04:32:50.780Z,76.63
2023-05-11T04:35:18.140Z,74.64
2023-05-11T04:37:47.620Z,73.89
2023-05-11T04:40:15.649Z,75.15
2023-05-11T04:42:42.436Z,72.17
2023-05-11T04:45:10.051Z,75.76
2023-05-11T04:47:37.959Z,71.59
2023-05-11T04:50:06.283Z,72.39
2023-05-11T04:52:33.526Z,73.57
2023-05-11T04:55:01.598Z,73.21
2023-05-11T04:57:29.579Z,75.56
2023-05-11T04:59:57.659Z,76.23
2023-05-11T05:02:25.466Z,75.76
2023-05-11T05:04:54.978Z,74.17
2023-05-11T05:07:21.784Z,71.61
2023-05-11T05:09:48.865Z,70.32
2023-05-11T05:12:15.973Z,69.10
2023-05-11T05:14:43.022Z,68.55
2023-05-11T05:17:11.318Z,73.65
2023-05-11T05:19:40.965Z,74.56
2023-05-11T05:22:10.877Z,75.29
2023-05-11T05:24:37.982Z,74.71
2023-05-11T05:27:07.272Z,71.09
2023-05-11T05:29:34.287Z,69.82
2023-05-11T05:32:01.288Z,68.68
2023-05-11T05:34:29.481Z,68.83
2023-05-11T05:36:56.569Z,74.10
2023-05-11T05:39:24.490Z,71.71
2023-05-11T05:41:52.580Z,70.08
2023-05-11T05:44:22.368Z,70.39
2023-05-11T05:46:49.062Z,68.14
2023-05-11T05:49:16.162Z,69.82
2023-05-11T05:51:43.237Z,70.40
2023-05-11T05:54:10.300Z,70.23
2023-05-11T05:56:39.959Z,72.30
2023-05-11T05:59:08.188Z,72.65
2023-05-11T06:01:37.897Z,69.52
2023-05-11T06:04:05.471Z,70.25
2023-05-11T06:06:33.714Z,68.96
2023-05-11T06:09:01.483Z,72.11
2023-05-11T06:11:28.560Z,69.63
2023-05-11T06:13:55.322Z,68.45
2023-05-11T06:16:22.133Z,68.49
2023-05-11T06:18:49.359Z,69.02
2023-05-11T06:21:16.324Z,69.44
2023-05-11T06:23:43.062Z,69.10
2023-05-11T06:26:09.808Z,68.03
2023-05-11T06:28:36.566Z,70.00
2023-05-11T06:31:03.351Z,67.90
2023-05-11T06:33:32.160Z,68.56
2023-05-11T06:35:58.910Z,67.74
2023-05-11T06:38:26.052Z,67.16
2023-05-11T06:40:53.265Z,65.48
2023-05-11T06:43:20.717Z,64.12
2023-05-11T06:45:50.468Z,67.01
2023-05-11T06:48:17.590Z,66.31
2023-05-11T06:50:44.320Z,66.18
2023-05-11T06:53:11.376Z,63.10
2023-05-11T06:55:38.121Z,62.23
2023-05-11T06:58:07.142Z,60.90
2023-05-11T07:00:34.508Z,62.79
2023-05-11T07:03:02.457Z,62.71
2023-05-11T07:05:30.058Z,62.29
2023-05-11T07:07:56.926Z,61.59
2023-05-11T07:10:23.648Z,60.47
2023-05-11T07:12:50.363Z,61.92
2023-05-11T07:15:17.517Z,62.22
2023-05-11T07:17:47.055Z,62.47
2023-05-11T07:20:14.115Z,63.61
2023-05-11T07:22:41.907Z,62.95
2023-05-11T07:25:10.272Z,62.59
2023-05-11T07:27:37.712Z,65.85
2023-05-11T07:30:05.763Z,66.25
2023-05-11T07:32:34.066Z,64.84
2023-05-11T07:35:00.951Z,65.65
2023-05-11T07:37:28.341Z,66.00
2023-05-11T07:39:56.140Z,65.47
2023-05-11T07:42:23.271Z,64.76
2023-05-11T07:44:50.028Z,64.48
2023-05-11T07:47:17.160Z,64.24
2023-05-11T07:49:45.291Z,66.67
2023-05-11T07:52:13.582Z,66.40
2023-05-11T07:54:40.686Z,64.76
2023-05-11T07:57:07.401Z,64.48
2023-05-11T07:59:34.510Z,62.66
2023-05-11T08:02:06.013Z,63.18
2023-05-11T08:04:32.847Z,62.47
2023-05-11T08:07:00.006Z,65.04
2023-05-11T08:09:27.080Z,66.14
2023-05-11T08:11:54.746Z,67.03
2023-05-11T08:14:22.193Z,67.43
2023-05-11T08:16:49.197Z,66.81
2023-05-11T08:19:15.912Z,67.20
2023-05-11T08:21:43.094Z,67.64
2023-05-11T08:24:10.609Z,66.42
2023-05-11T08:26:39.343Z,67.82
2023-05-11T08:29:07.703Z,67.85
2023-05-11T08:31:34.408Z,69.33
2023-05-11T08:34:01.430Z,67.63
2023-05-11T08:36:28.245Z,67.98
2023-05-11T08:38:58.942Z,67.23
2023-05-11T08:41:26.515Z,65.69
2023-05-11T08:43:53.780Z,65.05
2023-05-11T08:46:21.671Z,63.89
2023-05-11T08:48:48.596Z,65.57
2023-05-11T08:51:15.593Z,67.34
2023-05-11T08:53:42.338Z,66.27
2023-05-11T08:56:10.085Z,66.75
2023-05-11T08:58:37.030Z,67.70
2023-05-11T09:01:04.728Z,64.54
2023-05-11T09:03:32.216Z,65.24
2023-05-11T09:05:59.261Z,67.09
2023-05-11T09:08:26.371Z,66.81
2023-05-11T09:10:53.486Z,67.13
2023-05-11T09:13:20.510Z,66.52
2023-05-11T09:15:47.641Z,66.85
2023-05-11T09:18:14.386Z,67.48
2023-05-11T09:20:44.738Z,68.87
2023-05-11T09:23:11.476Z,66.42
2023-05-11T09:25:38.595Z,62.31
2023-05-11T09:28:05.298Z,63.26
2023-05-11T09:30:33.395Z,62.78
2023-05-11T09:33:00.971Z,65.05
2023-05-11T09:35:29.037Z,63.60
2023-05-11T09:38:09.066Z,63.86
2023-05-11T09:40:40.770Z,61.53
2023-05-11T09:43:28.336Z,61.00
2023-05-11T09:45:56.901Z,57.53
2023-05-11T09:48:28.618Z,57.91
2023-05-11T09:51:02.874Z,57.33
2023-05-11T09:53:45.216Z,57.14
2023-05-11T09:56:12.637Z,55.82
2023-05-11T09:58:53.945Z,57.62
2023-05-11T10:01:33.774Z,58.96
2023-05-11T10:04:21.488Z,58.67
2023-05-11T10:06:52.910Z,60.82
2023-05-11T10:09:23.557Z,61.99
2023-05-11T10:11:50.652Z,60.49
2023-05-11T10:14:20.287Z,59.39
2023-05-11T10:16:48.235Z,60.19
2023-05-11T10:19:15.412Z,58.37
2023-05-11T10:21:43.242Z,57.95
2023-05-11T10:24:10.608Z,57.13
2023-05-11T10:26:37.657Z,55.69
2023-05-11T10:29:04.381Z,56.73
2023-05-11T10:31:31.068Z,57.08
2023-05-11T10:33:58.178Z,56.16
2023-05-11T10:36:27.950Z,55.08
2023-05-11T10:38:55.048Z,56.23
2023-05-11T10:41:40.034Z,54.94
2023-05-11T10:44:17.637Z,56.42
2023-05-11T10:47:18.804Z,56.36
2023-05-11T10:50:09.959Z,56.24
2023-05-11T10:52:55.360Z,55.65
2023-05-11T10:55:37.157Z,57.80
2023-05-11T10:58:42.624Z,56.33
2023-05-11T11:01:19.553Z,58.02
2023-05-11T11:03:59.130Z,57.05
2023-05-11T11:06:25.812Z,58.17
2023-05-11T11:09:02.256Z,57.92
2023-05-11T11:11:39.513Z,57.73
2023-05-11T11:14:07.069Z,59.23
2023-05-11T11:16:37.020Z,57.33
2023-05-11T11:19:44.295Z,57.21
2023-05-11T11:22:42.532Z,58.48
2023-05-11T11:25:09.726Z,59.33
2023-05-11T11:27:54.868Z,56.95
2023-05-11T11:30:28.398Z,57.02
2023-05-11T11:33:07.887Z,56.69
2023-05-11T11:35:46.813Z,56.12
2023-05-11T11:38:15.045Z,56.38
2023-05-11T11:40:51.130Z,58.36
2023-05-11T11:43:28.946Z,56.65
2023-05-11T11:46:00.926Z,58.30
2023-05-11T11:48:36.224Z,53.96
2023-05-11T11:51:11.773Z,56.05
2023-05-11T11:53:41.393Z,56.47
2023-05-11T11:56:09.227Z,55.70
2023-05-11T11:58:45.615Z,58.36
2023-05-11T12:01:16.082Z,56.70
2023-05-11T12:03:43.866Z,61.13
2023-05-11T12:06:11.057Z,62.52
2023-05-11T12:08:40.888Z,61.17
2023-05-11T12:11:07.717Z,61.81
2023-05-11T12:13:34.676Z,60.71
2023-05-11T12:16:11.274Z,62.04
2023-05-11T12:18:38.658Z,65.25
2023-05-11T12:21:05.826Z,65.37
2023-05-11T12:23:32.606Z,66.92
2023-05-11T12:26:03.015Z,68.36
2023-05-11T12:28:29.877Z,65.59
2023-05-11T12:30:58.251Z,66.06
2023-05-11T12:33:26.953Z,65.16
2023-05-11T12:35:54.710Z,63.15
2023-05-11T12:38:21.561Z,64.61
2023-05-11T12:40:52.089Z,62.67
2023-05-11T12:43:21.369Z,61.10
2023-05-11T12:45:49.319Z,61.86
2023-05-11T12:48:16.463Z,59.41
2023-05-11T12:50:44.423Z,60.36
2023-05-11T12:53:14.480Z,60.61
2023-05-11T12:55:41.235Z,59.04
2023-05-11T12:58:12.055Z,60.47
2023-05-11T13:00:59.888Z,60.36
2023-05-11T13:03:31.175Z,60.62
2023-05-11T13:06:13.183Z,58.95
2023-05-11T13:08:43.782Z,58.97
2023-05-11T13:11:20.213Z,58.18
2023-05-11T13:13:46.996Z,55.25
2023-05-11T13:16:27.826Z,55.24
2023-05-11T13:19:07.302Z,51.02
2023-05-11T13:21:34.553Z,50.81
2023-05-11T13:24:04.062Z,53.42
2023-05-11T13:26:31.811Z,54.22
2023-05-11T13:29:09.496Z,60.90
2023-05-11T13:31:48.262Z,62.82
2023-05-11T13:34:15.098Z,67.82
2023-05-11T13:36:42.252Z,64.92
2023-05-11T13:39:09.370Z,66.69
2023-05-11T13:41:37.634Z,64.88
2023-05-11T13:44:07.134Z,66.24
2023-05-11T13:46:35.131Z,61.78
2023-05-11T13:49:02.208Z,60.98
2023-05-11T13:51:29.063Z,67.46
2023-05-11T13:53:57.902Z,63.65
2023-05-11T13:56:25.152Z,65.17
2023-05-11T13:58:51.834Z,61.99
2023-05-11T14:01:19.210Z,61.39
2023-05-11T14:03:51.100Z,61.92
2023-05-11T14:06:20.813Z,63.41
2023-05-11T14:08:50.353Z,65.53
2023-05-11T14:11:19.942Z,66.79
2023-05-11T14:13:46.724Z,67.51
2023-05-11T14:16:13.893Z,65.21
2023-05-11T14:18:40.952Z,66.16
2023-05-11T14:21:08.130Z,67.84
2023-05-11T14:23:35.820Z,67.54
2023-05-11T14:26:06.674Z,65.93
2023-05-11T14:28:33.718Z,67.87
2023-05-11T14:31:00.968Z,67.43
2023-05-11T14:33:27.674Z,65.08
2023-05-11T14:35:55.490Z,64.38
2023-05-11T14:38:23.254Z,64.52
2023-05-11T14:40:52.311Z,63.65
2023-05-11T14:43:22.248Z,64.31
2023-05-11T14:45:50.256Z,60.49
2023-05-11T14:48:16.950Z,59.88
2023-05-11T14:50:43.694Z,57.80
2023-05-11T14:53:10.425Z,52.65
2023-05-11T14:55:39.210Z,55.06
2023-05-11T14:58:06.353Z,54.67
2023-05-11T15:00:33.672Z,53.35
2023-05-11T15:03:05.970Z,53.99
2023-05-11T15:05:33.019Z,55.07
2023-05-11T15:08:00.390Z,56.61
2023-05-11T15:10:28.096Z,55.65
2023-05-11T15:12:55.195Z,56.67
2023-05-11T15:15:21.940Z,57.53
2023-05-11T15:17:48.672Z,57.26
2023-05-11T15:20:17.322Z,56.53
2023-05-11T15:22:44.522Z,55.03
2023-05-11T15:25:11.941Z,51.37
2023-05-11T15:27:38.637Z,49.69
2023-05-11T15:30:05.918Z,51.33
2023-05-11T15:32:33.529Z,53.74
2023-05-11T15:35:00.593Z,52.74
2023-05-11T15:37:30.212Z,51.93
2023-05-11T15:39:56.955Z,57.31
2023-05-11T15:42:26.554Z,52.96
2023-05-11T15:44:55.228Z,53.03
2023-05-11T15:47:24.856Z,50.54
2023-05-11T15:49:51.621Z,50.99
2023-05-11T15:52:18.721Z,52.25
2023-05-11T15:54:45.858Z,52.33
2023-05-11T15:57:12.954Z,52.82
2023-05-11T15:59:40.066Z,50.94
2023-05-11T16:02:06.867Z,51.91
2023-05-11T16:04:33.677Z,52.38
2023-05-11T16:07:00.766Z,52.54
2023-05-11T16:09:27.841Z,52.52
2023-05-11T16:11:55.568Z,55.84
2023-05-11T16:14:22.749Z,55.83
2023-05-11T16:16:49.891Z,56.90
2023-05-11T16:19:16.937Z,58.38
2023-05-11T16:21:44.088Z,57.21
2023-05-11T16:24:10.846Z,57.91
2023-05-11T16:26:38.291Z,59.61
2023-05-11T16:29:05.036Z,60.52
2023-05-11T16:31:31.922Z,60.06
2023-05-11T16:34:01.715Z,60.32
2023-05-11T16:36:32.377Z,61.40
2023-05-11T16:38:59.126Z,61.93
2023-05-11T16:41:26.408Z,61.80
2023-05-11T16:43:54.909Z,63.50
2023-05-11T16:46:24.388Z,62.60
2023-05-11T16:48:51.167Z,62.44
2023-05-11T16:51:18.506Z,61.91
2023-05-11T16:53:48.156Z,62.96
2023-05-11T16:56:17.688Z,61.49
2023-05-11T16:58:44.920Z,61.45
2023-05-11T17:01:12.188Z,62.72
2023-05-11T17:03:39.582Z,64.69
2023-05-11T17:06:06.557Z,62.87
2023-05-11T17:08:34.537Z,61.83
2023-05-11T17:11:01.658Z,62.09
2023-05-11T17:13:28.471Z,62.53
2023-05-11T17:15:55.460Z,61.93
2023-05-11T17:18:23.133Z,61.39
2023-05-11T17:20:53.755Z,59.88
2023-05-11T17:23:22.095Z,60.62
2023-05-11T17:25:48.779Z,61.63
2023-05-11T17:28:15.514Z,61.75
2023-05-11T17:33:14.436Z,58.85
2023-05-11T17:35:41.307Z,59.68
2023-05-11T17:38:08.466Z,57.87
2023-05-11T17:40:38.037Z,56.09
2023-05-11T17:43:05.130Z,60.19
2023-05-11T17:45:34.971Z,58.91
2023-05-11T17:48:02.170Z,58.69
2023-05-11T17:50:29.067Z,57.40
2023-05-11T17:52:56.673Z,59.07
2023-05-11T17:55:24.888Z,60.08
2023-05-11T17:57:52.250Z,59.01
2023-05-11T18:00:21.694Z,56.87
2023-05-11T18:02:48.919Z,55.87
2023-05-11T18:05:16.560Z,58.17
2023-05-11T18:07:44.495Z,58.49
2023-05-11T18:10:15.184Z,58.81
2023-05-11T18:12:45.012Z,60.28
2023-05-11T18:15:13.556Z,59.63
2023-05-11T18:17:43.069Z,59.64
2023-05-11T18:20:13.444Z,59.53
2023-05-11T18:22:40.779Z,60.89
2023-05-11T18:25:17.827Z,60.93
2023-05-11T18:27:44.572Z,60.52
2023-05-11T18:30:13.060Z,60.72
2023-05-11T18:32:41.368Z,61.42
2023-05-11T18:35:08.694Z,61.52
2023-05-11T18:37:36.464Z,62.15
2023-05-11T18:40:03.926Z,62.02
2023-05-11T18:42:30.688Z,62.61
2023-05-11T18:45:00.423Z,63.70
2023-05-11T18:47:27.674Z,64.72
2023-05-11T18:49:54.558Z,64.37
2023-05-11T18:52:22.750Z,65.17
2023-05-11T18:54:56.642Z,65.24
2023-05-11T18:57:24.213Z,65.31
2023-05-11T18:59:52.446Z,65.81
2023-05-11T19:02:19.492Z,65.89
2023-05-11T19:04:46.702Z,66.49
2023-05-11T19:07:15.521Z,66.27
2023-05-11T19:09:47.021Z,65.91
2023-05-11T19:12:14.386Z,66.51
2023-05-11T19:14:44.328Z,67.04
2023-05-11T19:17:12.647Z,67.64
2023-05-11T19:19:39.616Z,68.14
2023-05-11T19:22:07.005Z,69.13
2023-05-11T19:24:36.519Z,69.26
2023-05-11T19:27:07.709Z,69.65
2023-05-11T19:29:35.454Z,69.58
2023-05-11T19:32:03.518Z,69.41
2023-05-11T19:34:30.908Z,69.26
2023-05-11T19:36:57.632Z,69.31
2023-05-11T19:39:24.597Z,69.11
2023-05-11T19:41:54.621Z,69.70
2023-05-11T19:44:22.426Z,69.92
2023-05-11T19:46:49.755Z,70.48
2023-05-11T19:49:20.059Z,70.70
2023-05-11T19:51:47.277Z,69.96
2023-05-11T19:54:15.898Z,70.15
2023-05-11T19:56:42.739Z,70.21
2023-05-11T19:59:12.489Z,70.82
2023-05-11T20:01:40.719Z,69.61
2023-05-11T20:04:09.000Z,70.14
2023-05-11T20:06:35.806Z,70.49
2023-05-11T20:09:06.039Z,71.10
2023-05-11T20:11:33.417Z,70.68
2023-05-11T20:14:04.071Z,71.82
2023-05-11T20:16:40.316Z,71.38
2023-05-11T20:19:07.629Z,71.08
2023-05-11T20:21:35.417Z,71.93
2023-05-11T20:24:03.544Z,71.89
2023-05-11T20:26:31.084Z,72.56
2023-05-11T20:28:57.817Z,72.46
2023-05-11T20:31:29.882Z,72.21
2023-05-11T20:36:32.611Z,72.13
2023-05-11T20:39:00.435Z,72.58
2023-05-11T20:41:28.176Z,72.11
2023-05-11T20:43:58.237Z,71.45
2023-05-11T20:46:26.821Z,72.33
2023-05-11T20:48:53.949Z,72.14
2023-05-11T20:51:20.718Z,71.88
2023-05-11T20:53:47.642Z,71.41
2023-05-11T20:56:14.872Z,70.94
2023-05-11T20:58:41.626Z,71.46
2023-05-11T21:01:09.619Z,71.24
2023-05-11T21:03:36.978Z,71.11
2023-05-11T21:06:06.874Z,71.00
2023-05-11T21:08:35.163Z,70.69
2023-05-11T21:11:03.836Z,70.32
2023-05-11T21:13:30.564Z,70.21
2023-05-11T21:15:59.124Z,70.13
2023-05-11T21:18:26.370Z,69.62
2023-05-11T21:20:53.653Z,70.51
2023-05-11T21:23:21.018Z,69.67
2023-05-11T21:25:52.894Z,69.45
2023-05-11T21:28:21.465Z,69.00
2023-05-11T21:30:49.976Z,69.28
2023-05-11T21:33:26.257Z,69.43
2023-05-11T21:35:54.481Z,69.03
2023-05-11T21:38:21.903Z,69.73
2023-05-11T21:40:55.499Z,69.12
2023-05-11T21:43:22.667Z,70.33
2023-05-11T21:45:49.775Z,69.86
2023-05-11T21:48:17.215Z,69.45
2023-05-11T21:50:44.340Z,69.23
2023-05-11T21:53:11.317Z,69.88
2023-05-11T21:55:38.103Z,70.49
2023-05-11T21:58:05.810Z,71.07
2023-05-11T22:00:33.309Z,71.02
2023-05-11T22:03:07.697Z,71.40
2023-05-11T22:05:34.992Z,72.30
2023-05-11T22:08:13.446Z,71.83
2023-05-11T22:10:42.361Z,71.65
2023-05-11T22:13:09.077Z,71.80
2023-05-11T22:15:39.568Z,71.98
2023-05-11T22:18:14.897Z,71.30
2023-05-11T22:20:44.892Z,71.39
2023-05-11T22:23:15.744Z,71.69
2023-05-11T22:25:43.350Z,71.83
2023-05-11T22:28:10.427Z,71.40
2023-05-11T22:30:38.431Z,71.70
2023-05-11T22:33:16.854Z,71.33
2023-05-11T22:35:44.165Z,71.21
2023-05-11T22:38:10.909Z,71.54
2023-05-11T22:40:38.017Z,70.93
2023-05-11T22:43:05.194Z,71.18
2023-05-11T22:45:36.133Z,70.83
2023-05-11T22:48:05.084Z,70.05
2023-05-11T22:50:33.439Z,70.26
2023-05-11T22:53:00.367Z,70.65
2023-05-11T22:55:27.463Z,70.50
2023-05-11T22:57:54.260Z,70.44
2023-05-11T23:00:22.126Z,70.24
2023-05-11T23:02:51.923Z,70.35
2023-05-11T23:05:25.988Z,70.36
2023-05-11T23:07:53.074Z,70.37
2023-05-11T23:10:19.986Z,70.77
2023-05-11T23:12:49.521Z,71.65
2023-05-11T23:15:16.727Z,72.09
2023-05-11T23:17:45.578Z,72.78
2023-05-11T23:20:12.774Z,73.49
2023-05-11T23:22:40.805Z,73.13
2023-05-11T23:25:08.034Z,72.88
2023-05-11T23:27:38.273Z,73.32
2023-05-11T23:30:13.515Z,74.04
2023-05-11T23:32:42.478Z,73.51
2023-05-11T23:35:10.032Z,74.48
2023-05-11T23:37:39.590Z,74.43
2023-05-11T23:40:07.395Z,74.71
2023-05-11T23:42:34.841Z,74.43
2023-05-11T23:45:02.895Z,74.24
2023-05-11T23:47:33.564Z,74.30
2023-05-11T23:50:00.523Z,74.34
2023-05-11T23:52:27.641Z,74.28
2023-05-11T23:54:59.169Z,73.37
2023-05-11T23:57:27.751Z,73.03
2023-05-11T23:59:56.356Z,71.84
